createdAt,value
2019-02-28T00:01:50.840Z,82.50
2019-02-28T00:04:16.968Z,82.60
2019-02-28T00:06:43.972Z,82.20
2019-02-28T00:09:11.227Z,82.50
2019-02-28T00:11:39.529Z,82.50
2019-02-28T00:14:05.147Z,82.90
2019-02-28T00:16:31.180Z,82.20
2019-02-28T00:18:57.202Z,82.70
2019-02-28T00:21:23.223Z,82.50
2019-02-28T00:23:49.239Z,82.40
2019-02-28T00:26:15.291Z,81.90
2019-02-28T00:28:41.307Z,82.00
2019-02-28T00:31:07.330Z,82.00
2019-02-28T00:33:33.340Z,82.30
2019-02-28T00:35:59.369Z,82.30
2019-02-28T00:38:29.483Z,83.40
2019-02-28T00:40:53.306Z,83.20
2019-02-28T00:43:19.333Z,83.80
2019-02-28T00:45:45.355Z,84.10
2019-02-28T00:48:11.367Z,84.10
2019-02-28T00:50:37.507Z,84.00
2019-02-28T00:53:06.492Z,84.20
2019-02-28T00:55:31.463Z,84.10
2019-02-28T00:57:57.462Z,83.40
2019-02-28T01:00:23.591Z,83.30
2019-02-28T01:02:53.462Z,83.20
2019-02-28T01:05:17.535Z,83.60
2019-02-28T01:07:43.558Z,83.70
2019-02-28T01:10:10.379Z,83.60
2019-02-28T01:12:36.401Z,83.50
2019-02-28T01:15:07.146Z,83.70
2019-02-28T01:17:32.744Z,83.90
2019-02-28T01:19:58.795Z,83.70
2019-02-28T01:22:26.834Z,83.70
2019-02-28T01:24:52.745Z,84.50
2019-02-28T01:27:20.899Z,85.00
2019-02-28T01:29:46.667Z,84.90
2019-02-28T01:32:15.491Z,85.50
2019-02-28T01:34:40.606Z,85.70
2019-02-28T01:37:06.634Z,85.70
2019-02-28T01:39:32.651Z,84.90
2019-02-28T01:41:58.681Z,85.10
2019-02-28T01:44:24.683Z,84.80
2019-02-28T01:46:50.806Z,84.80
2019-02-28T01:49:16.815Z,84.80
2019-02-28T01:51:42.842Z,85.10
2019-02-28T01:54:08.856Z,85.60
2019-02-28T01:56:36.989Z,85.90
2019-02-28T01:59:03.000Z,86.10
2019-02-28T02:01:31.000Z,86.30
2019-02-28T02:03:56.945Z,86.40
2019-02-28T02:06:25.738Z,86.30
2019-02-28T02:08:50.874Z,86.40
2019-02-28T02:11:16.907Z,86.50
2019-02-28T02:13:43.019Z,86.90
2019-02-28T02:16:09.047Z,87.10
2019-02-28T02:18:35.050Z,87.50
2019-02-28T02:21:01.399Z,87.00
2019-02-28T02:23:27.405Z,86.50
2019-02-28T02:25:53.455Z,86.10
2019-02-28T02:28:19.463Z,86.40
2019-02-28T02:30:50.427Z,86.00
2019-02-28T02:33:14.662Z,86.00
2019-02-28T02:35:42.639Z,86.20
2019-02-28T02:38:09.252Z,86.60
2019-02-28T02:40:35.315Z,86.70
2019-02-28T02:43:01.344Z,87.30
2019-02-28T02:45:27.397Z,87.80
2019-02-28T02:47:53.415Z,87.90
2019-02-28T02:50:19.432Z,88.10
2019-02-28T02:52:45.464Z,87.90
2019-02-28T02:55:11.973Z,88.00
2019-02-28T02:57:38.016Z,88.20
2019-02-28T03:00:13.740Z,88.00
2019-02-28T03:02:38.185Z,87.60
2019-02-28T03:05:05.808Z,87.50
2019-02-28T03:07:31.845Z,87.30
2019-02-28T03:09:57.856Z,87.50
2019-02-28T03:12:23.937Z,87.60
2019-02-28T03:14:50.000Z,87.70
2019-02-28T03:17:16.092Z,88.20
2019-02-28T03:19:42.109Z,88.70
2019-02-28T03:22:08.140Z,88.70
2019-02-28T03:24:34.191Z,88.70
2019-02-28T03:27:00.211Z,89.50
2019-02-28T03:29:26.239Z,88.60
2019-02-28T03:31:56.604Z,88.90
2019-02-28T03:34:20.193Z,88.90
2019-02-28T03:36:55.256Z,89.00
2019-02-28T03:39:14.141Z,89.00
2019-02-28T03:41:40.161Z,88.90
2019-02-28T03:44:06.187Z,88.80
2019-02-28T03:46:32.207Z,89.30
2019-02-28T03:48:58.216Z,89.40
2019-02-28T03:51:28.342Z,89.00
2019-02-28T03:53:55.532Z,89.40
2019-02-28T03:56:20.317Z,89.60
2019-02-28T03:58:46.436Z,89.60
2019-02-28T04:01:12.476Z,89.50
2019-02-28T04:03:38.608Z,89.50
2019-02-28T04:06:04.989Z,89.60
2019-02-28T04:08:31.055Z,89.90
2019-02-28T04:10:57.084Z,90.00
2019-02-28T04:13:23.095Z,90.10
2019-02-28T04:16:07.397Z,90.00
2019-02-28T04:18:17.077Z,89.70
2019-02-28T04:20:43.115Z,89.10
2019-02-28T04:23:09.135Z,89.60
2019-02-28T04:25:35.178Z,89.30
2019-02-28T04:28:01.201Z,89.20
2019-02-28T04:30:29.139Z,89.10
2019-02-28T04:33:01.162Z,89.60
2019-02-28T04:35:25.293Z,90.00
2019-02-28T04:37:51.029Z,90.00
2019-02-28T04:40:17.157Z,90.00
2019-02-28T04:42:43.170Z,90.00
2019-02-28T04:45:11.703Z,89.60
2019-02-28T04:47:40.643Z,89.10
2019-02-28T04:50:07.583Z,88.90
2019-02-28T04:52:33.710Z,89.00
2019-02-28T04:55:02.607Z,89.20
2019-02-28T04:57:27.672Z,89.00
2019-02-28T04:59:53.747Z,88.90
2019-02-28T05:02:39.761Z,89.00
2019-02-28T05:05:09.350Z,89.00
2019-02-28T05:07:34.311Z,89.40
2019-02-28T05:10:00.327Z,89.60
2019-02-28T05:12:26.388Z,89.80
2019-02-28T05:14:55.245Z,90.00
2019-02-28T05:17:22.275Z,89.80
2019-02-28T05:19:48.309Z,90.00
2019-02-28T05:22:14.331Z,90.00
2019-02-28T05:24:42.554Z,89.90
2019-02-28T05:27:08.689Z,89.70
2019-02-28T05:29:34.779Z,90.20
2019-02-28T05:32:02.214Z,90.30
2019-02-28T05:34:28.303Z,90.10
2019-02-28T05:36:54.340Z,90.00
2019-02-28T05:39:20.352Z,89.90
2019-02-28T05:41:49.289Z,90.00
2019-02-28T05:44:14.336Z,90.10
2019-02-28T05:46:40.439Z,90.10
2019-02-28T05:49:08.693Z,90.10
2019-02-28T05:51:34.392Z,90.10
2019-02-28T05:54:01.447Z,90.20
2019-02-28T05:56:32.769Z,90.50
2019-02-28T05:58:56.451Z,90.50
2019-02-28T06:01:22.558Z,90.40
2019-02-28T06:03:48.639Z,90.40
2019-02-28T06:06:17.310Z,90.40
2019-02-28T06:08:42.604Z,90.60
2019-02-28T06:11:08.769Z,90.80
2019-02-28T06:13:36.943Z,91.00
2019-02-28T06:16:02.864Z,91.00
2019-02-28T06:18:32.672Z,91.10
2019-02-28T06:20:56.815Z,91.00
2019-02-28T06:23:22.833Z,90.90
2019-02-28T06:25:48.856Z,90.80
2019-02-28T06:28:14.900Z,90.70
2019-02-28T06:30:42.627Z,90.70
2019-02-28T06:33:08.851Z,90.90
2019-02-28T06:35:35.007Z,91.20
2019-02-28T06:38:01.961Z,91.30
2019-02-28T06:40:32.667Z,91.40
2019-02-28T06:42:55.972Z,91.50
2019-02-28T06:45:22.031Z,91.40
2019-02-28T06:47:49.856Z,91.20
2019-02-28T06:50:16.211Z,91.10
2019-02-28T06:52:42.233Z,91.40
2019-02-28T06:55:12.624Z,90.90
2019-02-28T06:57:38.699Z,91.00
2019-02-28T07:00:13.454Z,91.40
2019-02-28T07:02:39.503Z,91.10
2019-02-28T07:05:05.750Z,90.80
2019-02-28T07:07:31.868Z,90.60
2019-02-28T07:09:57.875Z,90.80
2019-02-28T07:12:29.108Z,90.80
2019-02-28T07:14:51.823Z,90.40
2019-02-28T07:17:17.884Z,90.50
2019-02-28T07:19:43.896Z,90.30
2019-02-28T07:22:09.937Z,90.00
2019-02-28T07:24:37.602Z,90.10
2019-02-28T07:27:04.287Z,89.50
2019-02-28T07:29:32.067Z,90.00
2019-02-28T07:32:01.229Z,89.50
2019-02-28T07:34:26.278Z,89.60
2019-02-28T07:36:52.320Z,89.80
2019-02-28T07:39:18.327Z,89.60
2019-02-28T07:41:44.352Z,89.60
2019-02-28T07:44:10.372Z,89.60
2019-02-28T07:46:38.661Z,89.70
2019-02-28T07:49:04.335Z,88.90
2019-02-28T07:51:30.378Z,88.90
2019-02-28T07:53:56.387Z,88.10
2019-02-28T07:56:23.906Z,87.70
2019-02-28T07:58:50.112Z,87.90
2019-02-28T08:01:18.318Z,87.30
2019-02-28T08:03:44.925Z,86.90
2019-02-28T08:06:11.093Z,87.40
2019-02-28T08:08:37.108Z,86.70
2019-02-28T08:11:03.344Z,86.30
2019-02-28T08:13:29.372Z,86.60
2019-02-28T08:15:56.906Z,86.10
2019-02-28T08:18:23.455Z,85.70
2019-02-28T08:20:49.470Z,85.10
2019-02-28T08:23:15.508Z,84.70
2019-02-28T08:25:42.754Z,84.50
2019-02-28T08:28:09.475Z,84.10
2019-02-28T08:30:35.584Z,83.70
2019-02-28T08:33:02.066Z,83.30
2019-02-28T08:35:33.947Z,83.10
2019-02-28T08:37:57.299Z,83.10
2019-02-28T08:40:26.783Z,82.60
2019-02-28T08:42:52.779Z,82.10
2019-02-28T08:45:18.900Z,82.90
2019-02-28T08:47:44.932Z,81.20
2019-02-28T08:50:23.182Z,80.90
2019-02-28T08:52:50.024Z,80.60
2019-02-28T08:55:16.032Z,80.40
2019-02-28T08:57:42.063Z,80.20
2019-02-28T09:00:11.892Z,79.80
2019-02-28T09:02:38.026Z,79.20
2019-02-28T09:05:06.762Z,78.40
2019-02-28T09:07:33.284Z,77.60
2019-02-28T09:09:59.295Z,76.90
2019-02-28T09:12:25.334Z,75.70
2019-02-28T09:14:51.975Z,75.10
2019-02-28T09:17:39.169Z,73.50
2019-02-28T09:20:10.499Z,73.00
2019-02-28T09:22:35.959Z,72.60
2019-02-28T09:25:02.785Z,72.80
2019-02-28T09:27:28.838Z,72.70
2019-02-28T09:29:55.556Z,72.10
2019-02-28T09:32:21.808Z,72.20
2019-02-28T09:34:47.828Z,71.30
2019-02-28T09:37:13.856Z,71.60
2019-02-28T09:39:39.895Z,70.80
2019-02-28T09:42:05.916Z,70.20
2019-02-28T09:44:32.502Z,70.50
2019-02-28T09:46:58.573Z,71.30
2019-02-28T09:49:24.603Z,70.70
2019-02-28T09:51:50.614Z,71.30
2019-02-28T09:54:16.687Z,70.30
2019-02-28T09:56:44.533Z,70.50
2019-02-28T09:59:10.632Z,71.00
2019-02-28T10:01:36.655Z,71.70
2019-02-28T10:04:02.902Z,71.10
2019-02-28T10:06:28.936Z,71.30
2019-02-28T10:08:54.957Z,71.20
2019-02-28T10:11:21.833Z,71.40
2019-02-28T10:13:49.498Z,71.50
2019-02-28T10:16:16.783Z,71.30
2019-02-28T10:18:43.813Z,71.00
2019-02-28T10:21:09.830Z,70.60
2019-02-28T10:23:35.963Z,70.90
2019-02-28T10:26:02.196Z,70.60
2019-02-28T10:28:28.256Z,70.50
2019-02-28T10:30:54.291Z,71.00
2019-02-28T10:33:20.351Z,70.90
2019-02-28T10:35:46.372Z,71.00
2019-02-28T10:38:12.406Z,70.20
2019-02-28T10:40:38.497Z,70.00
2019-02-28T10:43:04.604Z,69.70
2019-02-28T10:45:30.729Z,69.00
2019-02-28T10:47:56.764Z,68.70
2019-02-28T10:50:33.341Z,68.60
2019-02-28T10:52:58.003Z,68.10
2019-02-28T10:55:24.104Z,67.70
2019-02-28T10:57:50.194Z,68.00
2019-02-28T11:00:42.217Z,67.50
2019-02-28T11:03:08.348Z,66.60
2019-02-28T11:05:36.177Z,67.10
2019-02-28T11:08:03.320Z,67.20
2019-02-28T11:10:34.822Z,66.60
2019-02-28T11:12:59.455Z,66.60
2019-02-28T11:15:25.703Z,66.60
2019-02-28T11:17:52.023Z,66.30
2019-02-28T11:20:22.094Z,65.70
2019-02-28T11:22:46.071Z,65.20
2019-02-28T11:25:14.624Z,65.20
2019-02-28T11:27:40.643Z,64.70
2019-02-28T11:30:13.383Z,64.10
2019-02-28T11:32:39.602Z,64.50
2019-02-28T11:35:06.639Z,63.60
2019-02-28T11:37:32.653Z,63.30
2019-02-28T11:39:58.683Z,63.00
2019-02-28T11:42:28.024Z,62.60
2019-02-28T11:44:56.329Z,63.00
2019-02-28T11:47:23.356Z,62.90
2019-02-28T11:49:49.566Z,63.20
2019-02-28T11:52:16.048Z,62.90
2019-02-28T11:54:45.195Z,62.60
2019-02-28T11:57:10.243Z,62.70
2019-02-28T11:59:36.303Z,62.70
2019-02-28T12:02:02.519Z,62.80
2019-02-28T12:04:28.564Z,62.60
2019-02-28T12:06:57.491Z,62.90
2019-02-28T12:09:22.635Z,62.90
2019-02-28T12:11:48.652Z,62.80
2019-02-28T12:14:14.718Z,62.30
2019-02-28T12:16:40.731Z,61.30
2019-02-28T12:19:06.759Z,60.40
2019-02-28T12:21:37.624Z,60.20
2019-02-28T12:24:02.117Z,59.50
2019-02-28T12:26:28.128Z,58.90
2019-02-28T12:28:54.435Z,58.90
2019-02-28T12:31:20.476Z,59.70
2019-02-28T12:33:46.507Z,60.00
2019-02-28T12:36:14.432Z,59.90
2019-02-28T12:38:40.484Z,60.50
2019-02-28T12:41:06.643Z,60.70
2019-02-28T12:43:32.832Z,60.20
2019-02-28T12:45:59.969Z,60.70
2019-02-28T12:48:27.260Z,60.80
2019-02-28T12:50:53.459Z,61.00
2019-02-28T12:53:24.247Z,61.00
2019-02-28T12:55:47.523Z,61.10
2019-02-28T12:58:13.659Z,61.40
2019-02-28T13:00:44.142Z,62.50
2019-02-28T13:03:10.358Z,62.70
2019-02-28T13:05:36.491Z,62.80
2019-02-28T13:08:05.820Z,62.50
2019-02-28T13:10:31.230Z,61.80
2019-02-28T13:13:05.752Z,60.70
2019-02-28T13:15:25.725Z,60.90
2019-02-28T13:17:51.828Z,60.60
2019-02-28T13:20:20.970Z,60.30
2019-02-28T13:22:47.079Z,60.00
2019-02-28T13:25:33.004Z,59.50
2019-02-28T13:27:59.146Z,59.60
2019-02-28T13:30:26.480Z,60.50
2019-02-28T13:32:52.771Z,60.80
2019-02-28T13:35:21.761Z,61.50
2019-02-28T13:37:47.777Z,61.10
2019-02-28T13:40:14.822Z,61.50
2019-02-28T13:42:42.311Z,61.10
2019-02-28T13:45:35.131Z,60.30
2019-02-28T13:48:03.371Z,60.40
2019-02-28T13:50:32.766Z,61.10
2019-02-28T13:53:03.321Z,61.60
2019-02-28T13:55:27.064Z,61.40
2019-02-28T13:57:53.108Z,61.30
2019-02-28T14:00:21.353Z,61.90
2019-02-28T14:02:48.191Z,61.20
2019-02-28T14:05:14.583Z,61.10
2019-02-28T14:07:40.744Z,62.60
2019-02-28T14:10:11.748Z,61.70
2019-02-28T14:12:37.842Z,60.50
2019-02-28T14:15:16.878Z,60.30
2019-02-28T14:17:43.414Z,61.00
2019-02-28T14:20:10.376Z,61.00
2019-02-28T14:22:36.491Z,60.40
2019-02-28T14:25:06.151Z,61.60
2019-02-28T14:27:31.652Z,61.90
2019-02-28T14:29:57.799Z,62.80
2019-02-28T14:32:23.819Z,63.80
2019-02-28T14:34:49.855Z,64.60
2019-02-28T14:37:16.844Z,64.60
2019-02-28T14:39:43.799Z,64.50
2019-02-28T14:42:09.841Z,63.80
2019-02-28T14:44:35.860Z,64.30
2019-02-28T14:47:02.236Z,65.00
2019-02-28T14:49:28.351Z,66.20
2019-02-28T14:51:54.511Z,66.70
2019-02-28T14:54:21.859Z,67.10
2019-02-28T14:56:48.470Z,67.20
2019-02-28T15:04:08.507Z,71.40
2019-02-28T15:06:34.944Z,72.90
2019-02-28T15:09:01.010Z,73.80
2019-02-28T15:11:27.139Z,74.10
2019-02-28T15:13:53.237Z,74.40
2019-02-28T15:16:19.342Z,74.60
2019-02-28T15:18:47.749Z,74.80
2019-02-28T15:21:13.531Z,75.10
2019-02-28T15:23:39.534Z,75.60
2019-02-28T15:26:05.579Z,75.70
2019-02-28T15:28:31.595Z,75.70
2019-02-28T15:30:58.680Z,75.80
2019-02-28T15:33:27.364Z,76.10
2019-02-28T15:35:52.635Z,76.40
2019-02-28T15:38:18.659Z,76.70
2019-02-28T15:40:45.383Z,76.90
2019-02-28T15:43:14.484Z,77.00
2019-02-28T15:45:39.392Z,77.20
2019-02-28T15:48:05.604Z,77.70
2019-02-28T15:50:31.656Z,77.80
2019-02-28T15:52:57.890Z,78.00
2019-02-28T15:55:24.192Z,78.50
2019-02-28T15:57:50.336Z,78.80
2019-02-28T16:00:22.085Z,79.00
2019-02-28T16:02:47.615Z,79.00
2019-02-28T16:05:13.741Z,79.10
2019-02-28T16:07:39.976Z,79.50
2019-02-28T16:10:28.492Z,79.50
2019-02-28T16:12:56.428Z,79.30
2019-02-28T16:15:22.553Z,79.50
2019-02-28T16:17:48.592Z,79.60
2019-02-28T16:20:16.111Z,80.00
2019-02-28T16:25:20.692Z,80.20
2019-02-28T16:27:46.708Z,80.30
2019-02-28T16:30:16.764Z,80.60
2019-02-28T16:32:45.563Z,80.80
2019-02-28T16:35:11.097Z,81.20
2019-02-28T16:37:37.145Z,81.30
2019-02-28T16:40:12.150Z,81.10
2019-02-28T16:42:38.185Z,81.30
2019-02-28T16:45:12.083Z,81.50
2019-02-28T16:47:38.103Z,82.10
2019-02-28T16:50:07.756Z,82.10
2019-02-28T16:52:33.797Z,82.20
2019-02-28T16:54:59.831Z,82.10
2019-02-28T16:57:25.882Z,82.40
2019-02-28T16:59:51.895Z,82.50
2019-02-28T17:02:18.021Z,82.50
2019-02-28T17:04:44.080Z,82.40
2019-02-28T17:07:10.243Z,82.50
2019-02-28T17:09:37.999Z,82.40
2019-02-28T17:12:11.919Z,82.10
2019-02-28T17:14:37.956Z,82.20
2019-02-28T17:17:08.742Z,82.00
2019-02-28T17:19:34.952Z,82.00
2019-02-28T17:22:01.072Z,82.10
2019-02-28T17:24:27.392Z,82.10
2019-02-28T17:27:06.241Z,82.20
2019-02-28T17:29:40.528Z,82.40
2019-02-28T17:32:06.988Z,82.50
2019-02-28T17:34:33.004Z,82.80
2019-02-28T17:36:59.149Z,83.20
2019-02-28T17:39:25.212Z,83.60
2019-02-28T17:41:51.346Z,84.20
2019-02-28T17:44:23.957Z,84.60
2019-02-28T17:46:56.876Z,84.80
2019-02-28T17:49:49.085Z,85.00
2019-02-28T17:52:37.204Z,84.90
2019-02-28T17:55:31.161Z,85.10
2019-02-28T17:57:59.857Z,85.10
2019-02-28T18:00:41.091Z,85.10
2019-02-28T18:03:16.773Z,85.00
2019-02-28T18:06:03.400Z,85.10
2019-02-28T18:08:45.516Z,85.00
2019-02-28T18:11:40.104Z,85.10
2019-02-28T18:14:30.743Z,85.20
2019-02-28T18:17:18.091Z,85.20
2019-02-28T18:20:25.809Z,85.50
2019-02-28T18:23:07.446Z,85.50
2019-02-28T18:25:42.961Z,85.60
2019-02-28T18:28:22.230Z,85.50
2019-02-28T18:31:07.584Z,85.70
2019-02-28T18:33:33.656Z,85.60
2019-02-28T18:35:59.805Z,85.50
2019-02-28T18:38:35.716Z,85.40
2019-02-28T18:41:05.611Z,85.40
2019-02-28T18:43:29.739Z,85.40
2019-02-28T18:45:56.875Z,85.50
2019-02-28T18:48:23.732Z,85.60
2019-02-28T18:50:49.772Z,85.60
2019-02-28T18:53:15.795Z,85.50
2019-02-28T18:55:41.835Z,85.70
2019-02-28T18:58:07.865Z,85.80
2019-02-28T19:00:33.907Z,85.90
2019-02-28T19:02:59.963Z,86.10
2019-02-28T19:05:27.935Z,86.20
2019-02-28T19:07:53.964Z,86.40
2019-02-28T19:10:19.998Z,86.80
2019-02-28T19:12:46.037Z,87.10
2019-02-28T19:15:13.689Z,87.30
2019-02-28T19:17:40.779Z,87.60
2019-02-28T19:20:08.628Z,88.10
2019-02-28T19:22:35.449Z,88.20
2019-02-28T19:25:03.978Z,88.40
2019-02-28T19:27:30.083Z,88.60
2019-02-28T19:29:56.163Z,88.90
2019-02-28T19:32:22.197Z,89.10
2019-02-28T19:34:48.231Z,89.10
2019-02-28T19:37:14.371Z,89.10
2019-02-28T19:39:43.436Z,89.00
2019-02-28T19:42:09.460Z,89.10
2019-02-28T19:44:35.544Z,89.10
2019-02-28T19:47:01.579Z,89.20
2019-02-28T19:49:27.622Z,89.10
2019-02-28T19:51:53.644Z,89.30
2019-02-28T19:54:19.696Z,89.40
2019-02-28T19:56:45.707Z,88.90
2019-02-28T19:59:11.755Z,89.10
2019-02-28T20:01:37.796Z,89.00
2019-02-28T20:04:03.962Z,89.20
2019-02-28T20:06:29.975Z,89.40
2019-02-28T20:08:56.026Z,89.30
2019-02-28T20:11:42.016Z,89.00
2019-02-28T20:14:08.285Z,89.10
2019-02-28T20:16:34.307Z,88.90
2019-02-28T20:19:01.976Z,88.90
2019-02-28T20:21:28.002Z,89.30
2019-02-28T20:23:54.035Z,89.10
2019-02-28T20:26:20.064Z,89.20
2019-02-28T20:28:46.102Z,89.00
2019-02-28T20:31:13.288Z,89.00
2019-02-28T20:33:39.328Z,89.30
2019-02-28T20:36:05.379Z,89.20
2019-02-28T20:38:39.596Z,89.30
2019-02-28T20:41:05.711Z,90.10
2019-02-28T20:43:31.731Z,90.80
2019-02-28T20:45:58.027Z,91.20
2019-02-28T20:48:24.048Z,91.40
2019-02-28T20:50:52.077Z,91.40
2019-02-28T20:53:18.108Z,91.10
2019-02-28T20:55:44.147Z,91.30
2019-02-28T20:58:10.252Z,91.00
2019-02-28T21:00:36.301Z,91.40
2019-02-28T21:03:02.640Z,91.70
2019-02-28T21:05:28.732Z,92.20
2019-02-28T21:07:56.576Z,92.80
2019-02-28T21:10:22.730Z,93.70
2019-02-28T21:12:48.740Z,94.20
2019-02-28T21:15:14.765Z,94.20
2019-02-28T21:17:40.915Z,94.10
2019-02-28T21:20:12.325Z,94.20
2019-02-28T21:22:38.512Z,94.50
2019-02-28T21:25:08.275Z,94.60
2019-02-28T21:27:34.320Z,94.80
2019-02-28T21:30:00.388Z,94.90
2019-02-28T21:32:26.557Z,94.80
2019-02-28T21:34:52.610Z,95.10
2019-02-28T21:37:18.672Z,95.10
2019-02-28T21:39:44.692Z,95.10
2019-02-28T21:42:10.847Z,95.60
2019-02-28T21:44:36.872Z,95.40
2019-02-28T21:47:03.127Z,95.80
2019-02-28T21:49:29.245Z,95.70
2019-02-28T21:51:55.287Z,96.00
2019-02-28T21:54:21.357Z,96.00
2019-02-28T21:56:47.484Z,96.10
2019-02-28T21:59:13.513Z,96.20
2019-02-28T22:01:39.560Z,96.20
2019-02-28T22:04:05.584Z,96.30
2019-02-28T22:06:31.654Z,96.50
2019-02-28T22:08:57.677Z,96.50
2019-02-28T22:11:23.715Z,96.40
2019-02-28T22:13:49.748Z,96.40
2019-02-28T22:16:15.788Z,96.50
2019-02-28T22:18:41.948Z,96.40
2019-02-28T22:21:07.999Z,96.40
2019-02-28T22:23:34.020Z,96.10
2019-02-28T22:26:00.056Z,96.20
2019-02-28T22:28:26.084Z,96.00
2019-02-28T22:30:54.035Z,96.00
2019-02-28T22:33:27.752Z,96.00
2019-02-28T22:35:55.794Z,96.30
2019-02-28T22:38:21.812Z,96.10
2019-02-28T22:40:47.856Z,96.30
2019-02-28T22:43:13.880Z,96.40
2019-02-28T22:45:39.928Z,96.40
2019-02-28T22:48:05.949Z,96.40
2019-02-28T22:50:32.236Z,96.40
2019-02-28T22:52:58.300Z,96.30
2019-02-28T22:55:24.605Z,96.20
2019-02-28T22:57:50.652Z,96.50
2019-02-28T23:00:28.276Z,96.70
2019-02-28T23:02:54.323Z,96.50
2019-02-28T23:05:20.336Z,96.50
2019-02-28T23:07:46.516Z,96.30
2019-02-28T23:10:12.535Z,96.40
2019-02-28T23:12:38.615Z,96.00
2019-02-28T23:15:05.160Z,96.00
2019-02-28T23:17:31.220Z,95.80
2019-02-28T23:19:57.240Z,96.00
2019-02-28T23:22:23.276Z,95.60
2019-02-28T23:24:49.426Z,95.80
2019-02-28T23:27:15.691Z,95.80
2019-02-28T23:29:54.201Z,95.70
2019-02-28T23:32:46.960Z,95.80
2019-02-28T23:35:19.444Z,95.80
2019-02-28T23:37:45.480Z,95.60
2019-02-28T23:40:11.617Z,95.90
2019-02-28T23:42:37.660Z,95.50
2019-02-28T23:45:05.285Z,95.60
2019-02-28T23:47:31.341Z,95.60
2019-02-28T23:49:57.354Z,95.50
2019-02-28T23:52:23.400Z,95.30
2019-02-28T23:54:49.423Z,95.10
2019-02-28T23:57:15.461Z,95.20
2019-02-28T23:59:41.484Z,95.50
